Menu Close Menu
Station Historical Data
Daily Summary for October 1, 2017 Units:  English    Metric   Both
« Previous Day
Next Day »
Daily Weekly Monthly Yearly Custom
  High: Low: Average:
Temperature: 70.7 °F 57.2 °F 63.3 °F
Dew Point: 56.6 °F 44.1 °F 46.8 °F
Humidity: 81% 40% 56%
Wind Speed: 15.0mph 3.0mph 9.5mph
Wind Gust: 28.0mph - -
Wind- - East
Pressure: 30.28 in 30.18 in -
Precipitation: 0.00 in    
Historical Graphs
 
 
Tabular Data for October 1, 2017
Time Temperature Dew Point Pressure Wind Wind Speed Wind Gust Humidity Rainfall Rate (Hourly) solar Conditions
00:00 62.9 °F 56.2 °F 30.18 in East 3.0 mph 3.0 mph 79% 0.00 in WeatherDisplay:10.37 W/m2 FEW
00:05 62.8 °F 56.5 °F 30.18 in East 3.0 mph 3.0 mph 80% 0.00 in WeatherDisplay:10.37 W/m2 FEW
00:10 62.7 °F 56.1 °F 30.18 in East 3.0 mph 3.0 mph 79% 0.00 in WeatherDisplay:10.37 W/m2 FEW
00:20 62.6 °F 56.3 °F 30.18 in East 3.0 mph 3.0 mph 80% 0.00 in WeatherDisplay:10.37 W/m2 CLR
00:25 62.5 °F 56.3 °F 30.18 in East 3.0 mph 3.0 mph 80% 0.00 in WeatherDisplay:10.37 W/m2 CLR
00:30 62.5 °F 56.6 °F 30.18 in East 3.0 mph 3.0 mph 81% 0.00 in WeatherDisplay:10.37 W/m2 CLR
00:35 62.4 °F 56.1 °F 30.18 in East 3.0 mph 3.0 mph 80% 0.00 in WeatherDisplay:10.37 W/m2 CLR
00:40 62.3 °F 55.7 °F 30.18 in East 3.0 mph 3.0 mph 79% 0.00 in WeatherDisplay:10.37 W/m2 CLR
00:45 62.6 °F 55.7 °F 30.19 in East 3.0 mph 3.0 mph 78% 0.00 in WeatherDisplay:10.37 W/m2 CLR
00:50 63.4 °F 55.0 °F 30.19 in East 3.0 mph 3.0 mph 74% 0.00 in WeatherDisplay:10.37 W/m2 CLR
00:55 63.8 °F 54.6 °F 30.19 in East 3.0 mph 3.0 mph 72% 0.00 in WeatherDisplay:10.37 W/m2 CLR
01:00 64.2 °F 53.8 °F 30.19 in East 3.0 mph 3.0 mph 69% 0.00 in WeatherDisplay:10.37 W/m2 CLR
01:10 64.4 °F 53.2 °F 30.19 in East 3.0 mph 3.0 mph 67% 0.00 in WeatherDisplay:10.37 W/m2 CLR
01:15 64.2 °F 53.4 °F 30.19 in ENE 8.0 mph 8.0 mph 68% 0.00 in WeatherDisplay:10.37 W/m2 CLR
01:20 64.1 °F 53.3 °F 30.19 in ENE 8.0 mph 8.0 mph 68% 0.00 in WeatherDisplay:10.37 W/m2 CLR
01:25 63.8 °F 52.6 °F 30.19 in ENE 8.0 mph 8.0 mph 67% 0.00 in WeatherDisplay:10.37 W/m2 CLR
01:30 63.7 °F 52.5 °F 30.19 in ENE 8.0 mph 8.0 mph 67% 0.00 in WeatherDisplay:10.37 W/m2 CLR
01:35 63.7 °F 52.1 °F 30.19 in ENE 8.0 mph 8.0 mph 66% 0.00 in WeatherDisplay:10.37 W/m2 CLR
01:40 63.7 °F 51.7 °F 30.19 in ENE 8.0 mph 8.0 mph 65% 0.00 in WeatherDisplay:10.37 W/m2 CLR
01:45 63.6 °F 51.7 °F 30.19 in ENE 8.0 mph 8.0 mph 65% 0.00 in WeatherDisplay:10.37 W/m2 CLR
01:50 63.5 °F 51.1 °F 30.20 in ENE 8.0 mph 8.0 mph 64% 0.00 in WeatherDisplay:10.37 W/m2 CLR
01:55 63.6 °F 50.7 °F 30.20 in ENE 8.0 mph 8.0 mph 63% 0.00 in WeatherDisplay:10.37 W/m2 CLR
02:00 63.5 °F 50.3 °F 30.20 in ENE 8.0 mph 8.0 mph 62% 0.00 in WeatherDisplay:10.37 W/m2 CLR
02:05 63.5 °F 50.2 °F 30.20 in ENE 8.0 mph 8.0 mph 62% 0.00 in WeatherDisplay:10.37 W/m2 CLR
02:10 63.5 °F 49.8 °F 30.20 in ENE 8.0 mph 8.0 mph 61% 0.00 in WeatherDisplay:10.37 W/m2 CLR
02:15 63.4 °F 49.3 °F 30.20 in ENE 7.0 mph 8.0 mph 60% 0.00 in WeatherDisplay:10.37 W/m2 CLR
02:20 63.3 °F 49.2 °F 30.20 in East 7.0 mph 7.0 mph 60% 0.00 in WeatherDisplay:10.37 W/m2 CLR
02:25 63.2 °F 49.5 °F 30.20 in East 7.0 mph 7.0 mph 61% 0.00 in WeatherDisplay:10.37 W/m2 CLR
02:30 63.1 °F 48.6 °F 30.20 in East 7.0 mph 7.0 mph 59% 0.00 in WeatherDisplay:10.37 W/m2 CLR
02:35 63.0 °F 48.4 °F 30.20 in East 7.0 mph 7.0 mph 59% 0.00 in WeatherDisplay:10.37 W/m2 CLR
02:40 62.9 °F 47.9 °F 30.20 in East 7.0 mph 7.0 mph 58% 0.00 in WeatherDisplay:10.37 W/m2 CLR
02:45 63.0 °F 48.0 °F 30.21 in East 7.0 mph 7.0 mph 58% 0.00 in WeatherDisplay:10.37 W/m2 CLR
02:50 62.9 °F 47.9 °F 30.20 in East 7.0 mph 7.0 mph 58% 0.00 in WeatherDisplay:10.37 W/m2 CLR
02:55 62.8 °F 47.8 °F 30.20 in East 7.0 mph 7.0 mph 58% 0.00 in WeatherDisplay:10.37 W/m2 CLR
03:00 62.8 °F 47.3 °F 30.20 in East 7.0 mph 7.0 mph 57% 0.00 in WeatherDisplay:10.37 W/m2 CLR
03:05 62.7 °F 47.2 °F 30.20 in East 7.0 mph 7.0 mph 57% 0.00 in WeatherDisplay:10.37 W/m2 CLR
03:10 62.6 °F 46.7 °F 30.20 in East 7.0 mph 7.0 mph 56% 0.00 in WeatherDisplay:10.37 W/m2 CLR
03:15 62.5 °F 46.6 °F 30.20 in East 10.0 mph 23.0 mph 56% 0.00 in WeatherDisplay:10.37 W/m2 CLR
03:20 62.4 °F 46.5 °F 30.20 in East 10.0 mph 23.0 mph 56% 0.00 in WeatherDisplay:10.37 W/m2 CLR
03:25 62.4 °F 46.0 °F 30.20 in East 10.0 mph 23.0 mph 55% 0.00 in WeatherDisplay:10.37 W/m2 CLR
03:30 62.2 °F 45.8 °F 30.20 in East 10.0 mph 23.0 mph 55% 0.00 in WeatherDisplay:10.37 W/m2 CLR
03:40 61.8 °F 45.5 °F 30.20 in East 10.0 mph 23.0 mph 55% 0.00 in WeatherDisplay:10.37 W/m2 CLR
03:45 61.7 °F 45.4 °F 30.20 in East 10.0 mph 23.0 mph 55% 0.00 in WeatherDisplay:10.37 W/m2 CLR
03:50 61.7 °F 45.4 °F 30.20 in East 10.0 mph 23.0 mph 55% 0.00 in WeatherDisplay:10.37 W/m2 CLR
03:55 61.6 °F 45.3 °F 30.20 in East 10.0 mph 23.0 mph 55% 0.00 in WeatherDisplay:10.37 W/m2 CLR
04:00 61.6 °F 45.7 °F 30.20 in East 10.0 mph 23.0 mph 56% 0.00 in WeatherDisplay:10.37 W/m2 CLR
04:05 61.4 °F 45.1 °F 30.20 in East 10.0 mph 23.0 mph 55% 0.00 in WeatherDisplay:10.37 W/m2 CLR
04:10 61.3 °F 45.0 °F 30.20 in East 10.0 mph 23.0 mph 55% 0.00 in WeatherDisplay:10.37 W/m2 CLR
04:15 61.2 °F 44.9 °F 30.21 in East 13.0 mph 23.0 mph 55% 0.00 in WeatherDisplay:10.37 W/m2 CLR
04:20 61.2 °F 44.9 °F 30.21 in East 13.0 mph 23.0 mph 55% 0.00 in WeatherDisplay:10.37 W/m2 CLR
04:25 61.1 °F 44.8 °F 30.21 in East 13.0 mph 23.0 mph 55% 0.00 in WeatherDisplay:10.37 W/m2 CLR
04:30 61.0 °F 44.7 °F 30.21 in East 13.0 mph 23.0 mph 55% 0.00 in WeatherDisplay:10.37 W/m2 CLR
04:35 60.9 °F 44.6 °F 30.21 in East 13.0 mph 23.0 mph 55% 0.00 in WeatherDisplay:10.37 W/m2 CLR
04:40 61.0 °F 45.2 °F 30.21 in East 13.0 mph 23.0 mph 56% 0.00 in WeatherDisplay:10.37 W/m2 CLR
04:45 60.9 °F 45.1 °F 30.21 in East 13.0 mph 23.0 mph 56% 0.00 in WeatherDisplay:10.37 W/m2 CLR
04:50 60.7 °F 44.9 °F 30.21 in East 13.0 mph 23.0 mph 56% 0.00 in WeatherDisplay:10.37 W/m2 CLR
04:55 60.5 °F 44.8 °F 30.21 in East 13.0 mph 23.0 mph 56% 0.00 in WeatherDisplay:10.37 W/m2 CLR
05:00 60.5 °F 44.7 °F 30.21 in East 13.0 mph 23.0 mph 56% 0.00 in WeatherDisplay:10.37 W/m2 CLR
05:05 60.4 °F 44.6 °F 30.21 in East 13.0 mph 23.0 mph 56% 0.00 in WeatherDisplay:10.37 W/m2 CLR
05:15 60.1 °F 44.8 °F 30.21 in East 12.0 mph 23.0 mph 57% 0.00 in WeatherDisplay:10.37 W/m2 CLR
05:20 59.9 °F 44.6 °F 30.20 in East 12.0 mph 12.0 mph 57% 0.00 in WeatherDisplay:10.37 W/m2 CLR
05:30 59.7 °F 44.9 °F 30.20 in East 12.0 mph 12.0 mph 58% 0.00 in WeatherDisplay:10.37 W/m2 CLR
05:35 59.6 °F 44.8 °F 30.21 in East 12.0 mph 12.0 mph 58% 0.00 in WeatherDisplay:10.37 W/m2 CLR
05:40 59.5 °F 44.7 °F 30.21 in East 12.0 mph 12.0 mph 58% 0.00 in WeatherDisplay:10.37 W/m2 CLR
05:45 59.4 °F 44.6 °F 30.21 in East 12.0 mph 12.0 mph 58% 0.00 in WeatherDisplay:10.37 W/m2 CLR
05:50 59.3 °F 44.5 °F 30.21 in East 12.0 mph 12.0 mph 58% 0.00 in WeatherDisplay:10.37 W/m2 CLR
05:55 59.2 °F 44.9 °F 30.21 in East 12.0 mph 12.0 mph 59% 0.00 in WeatherDisplay:10.37 W/m2 CLR
06:00 59.0 °F 44.7 °F 30.22 in East 12.0 mph 12.0 mph 59% 0.00 in WeatherDisplay:10.37 W/m2 CLR
06:05 59.0 °F 44.7 °F 30.22 in East 12.0 mph 12.0 mph 59% 0.00 in WeatherDisplay:10.37 W/m2 CLR
06:10 58.9 °F 44.6 °F 30.22 in East 12.0 mph 12.0 mph 59% 0.00 in WeatherDisplay:10.37 W/m2 CLR
06:15 58.8 °F 44.5 °F 30.22 in ENE 7.0 mph 12.0 mph 59% 0.00 in WeatherDisplay:10.37 W/m2 FEW
06:20 58.6 °F 44.8 °F 30.22 in ENE 7.0 mph 7.0 mph 60% 0.00 in WeatherDisplay:10.37 W/m2 FEW
06:25 58.4 °F 44.6 °F 30.22 in ENE 7.0 mph 7.0 mph 60% 0.00 in WeatherDisplay:10.37 W/m2 FEW
06:30 58.3 °F 44.9 °F 30.22 in ENE 7.0 mph 7.0 mph 61% 0.00 in WeatherDisplay:10.37 W/m2 FEW
06:35 58.3 °F 44.5 °F 30.22 in ENE 7.0 mph 7.0 mph 60% 0.00 in WeatherDisplay:10.37 W/m2 FEW
06:40 58.3 °F 44.9 °F 30.23 in ENE 7.0 mph 7.0 mph 61% 0.00 in WeatherDisplay:10.37 W/m2 FEW
06:45 58.1 °F 44.7 °F 30.23 in ENE 7.0 mph 7.0 mph 61% 0.00 in WeatherDisplay:10.37 W/m2 FEW
06:50 58.0 °F 45.0 °F 30.23 in ENE 7.0 mph 7.0 mph 62% 0.00 in WeatherDisplay:10.37 W/m2 FEW
06:55 58.0 °F 45.0 °F 30.23 in ENE 7.0 mph 7.0 mph 62% 0.00 in WeatherDisplay:10.37 W/m2 FEW
07:00 58.0 °F 45.1 °F 30.23 in ENE 7.0 mph 7.0 mph 62% 0.00 in WeatherDisplay:10.37 W/m2 FEW
07:05 58.0 °F 45.0 °F 30.23 in ENE 7.0 mph 7.0 mph 62% 0.00 in WeatherDisplay:10.37 W/m2 FEW
07:10 58.0 °F 45.0 °F 30.23 in ENE 7.0 mph 7.0 mph 62% 0.00 in WeatherDisplay:10.37 W/m2 FEW
07:15 57.8 °F 44.9 °F 30.23 in ENE 9.0 mph 9.0 mph 62% 0.00 in WeatherDisplay:10.37 W/m2 FEW
07:20 57.7 °F 45.2 °F 30.24 in ENE 9.0 mph 9.0 mph 63% 0.00 in WeatherDisplay:10.37 W/m2 FEW
07:25 57.6 °F 45.1 °F 30.24 in ENE 9.0 mph 9.0 mph 63% 0.00 in WeatherDisplay:10.37 W/m2 FEW
07:30 57.6 °F 45.1 °F 30.24 in ENE 9.0 mph 9.0 mph 63% 0.00 in WeatherDisplay:10.37 W/m2 FEW
07:35 57.4 °F 45.3 °F 30.24 in ENE 9.0 mph 9.0 mph 64% 0.00 in WeatherDisplay:10.37 W/m2 FEW
07:40 57.4 °F 44.9 °F 30.24 in ENE 9.0 mph 9.0 mph 63% 0.00 in WeatherDisplay:10.37 W/m2 FEW
07:45 57.4 °F 44.9 °F 30.25 in ENE 9.0 mph 9.0 mph 63% 0.00 in WeatherDisplay:10.37 W/m2 FEW
07:50 57.4 °F 44.9 °F 30.25 in ENE 9.0 mph 9.0 mph 63% 0.00 in WeatherDisplay:10.37 W/m2 FEW
07:55 57.3 °F 45.2 °F 30.25 in ENE 9.0 mph 9.0 mph 64% 0.00 in WeatherDisplay:10.37 W/m2 FEW
08:00 57.3 °F 45.2 °F 30.25 in ENE 9.0 mph 9.0 mph 64% 0.00 in WeatherDisplay:10.37 W/m2 FEW
08:05 57.3 °F 45.2 °F 30.25 in ENE 9.0 mph 9.0 mph 64% 0.00 in WeatherDisplay:10.37 W/m2 FEW
08:10 57.2 °F 45.1 °F 30.26 in ENE 9.0 mph 9.0 mph 64% 0.00 in WeatherDisplay:10.37 W/m2 FEW
08:15 57.3 °F 45.2 °F 30.26 in ENE 13.0 mph 13.0 mph 64% 0.00 in WeatherDisplay:10.37 W/m2 FEW
08:20 57.4 °F 45.7 °F 30.26 in East 13.0 mph 13.0 mph 65% 0.00 in WeatherDisplay:10.37 W/m2 FEW
08:25 57.5 °F 45.8 °F 30.26 in East 13.0 mph 13.0 mph 65% 0.00 in WeatherDisplay:10.37 W/m2 FEW
08:30 57.6 °F 45.9 °F 30.26 in East 13.0 mph 13.0 mph 65% 0.00 in WeatherDisplay:10.37 W/m2 FEW
08:35 57.7 °F 46.0 °F 30.26 in East 13.0 mph 13.0 mph 65% 0.00 in WeatherDisplay:10.37 W/m2 FEW
08:40 57.8 °F 45.7 °F 30.26 in East 13.0 mph 13.0 mph 64% 0.00 in WeatherDisplay:10.37 W/m2 FEW
08:45 57.9 °F 45.8 °F 30.26 in East 13.0 mph 13.0 mph 64% 0.00 in WeatherDisplay:10.37 W/m2 FEW
08:50 57.9 °F 45.8 °F 30.26 in East 13.0 mph 13.0 mph 64% 0.00 in WeatherDisplay:10.37 W/m2 FEW
08:55 58.0 °F 46.3 °F 30.26 in East 13.0 mph 13.0 mph 65% 0.00 in WeatherDisplay:10.37 W/m2 FEW
09:00 58.1 °F 46.4 °F 30.26 in East 13.0 mph 13.0 mph 65% 0.00 in WeatherDisplay:10.37 W/m2 FEW
09:05 58.2 °F 46.1 °F 30.26 in East 13.0 mph 13.0 mph 64% 0.00 in WeatherDisplay:10.37 W/m2 FEW
09:10 58.3 °F 46.5 °F 30.26 in East 13.0 mph 13.0 mph 65% 0.00 in WeatherDisplay:10.37 W/m2 FEW
09:15 58.5 °F 46.3 °F 30.27 in East 8.0 mph 23.0 mph 64% 0.00 in WeatherDisplay:10.37 W/m2 FEW
09:20 58.7 °F 46.5 °F 30.27 in East 8.0 mph 23.0 mph 64% 0.00 in WeatherDisplay:10.37 W/m2 FEW
09:25 58.8 °F 46.7 °F 30.27 in East 8.0 mph 23.0 mph 64% 0.00 in WeatherDisplay:10.37 W/m2 FEW
09:30 58.9 °F 45.9 °F 30.27 in East 8.0 mph 23.0 mph 62% 0.00 in WeatherDisplay:10.37 W/m2 FEW
09:35 58.9 °F 45.5 °F 30.27 in East 8.0 mph 23.0 mph 61% 0.00 in WeatherDisplay:10.37 W/m2 FEW
09:40 58.8 °F 45.4 °F 30.28 in East 8.0 mph 23.0 mph 61% 0.00 in WeatherDisplay:10.37 W/m2 FEW
09:45 58.9 °F 45.5 °F 30.28 in East 8.0 mph 23.0 mph 61% 0.00 in WeatherDisplay:10.37 W/m2 FEW
09:50 59.1 °F 45.2 °F 30.28 in East 8.0 mph 23.0 mph 60% 0.00 in WeatherDisplay:10.37 W/m2 FEW
09:55 59.1 °F 45.2 °F 30.28 in East 8.0 mph 23.0 mph 60% 0.00 in WeatherDisplay:10.37 W/m2 FEW
10:00 59.3 °F 46.3 °F 30.28 in East 8.0 mph 23.0 mph 62% 0.00 in WeatherDisplay:10.37 W/m2 FEW
10:05 59.8 °F 46.3 °F 30.28 in East 8.0 mph 23.0 mph 61% 0.00 in WeatherDisplay:10.37 W/m2 FEW
10:10 59.9 °F 46.0 °F 30.28 in East 8.0 mph 23.0 mph 60% 0.00 in WeatherDisplay:10.37 W/m2 FEW
10:15 60.0 °F 45.6 °F 30.28 in East 15.0 mph 25.0 mph 59% 0.00 in WeatherDisplay:10.37 W/m2 FEW
10:20 60.1 °F 45.3 °F 30.28 in East 15.0 mph 25.0 mph 58% 0.00 in WeatherDisplay:10.37 W/m2 FEW
10:25 60.3 °F 45.9 °F 30.28 in East 15.0 mph 25.0 mph 59% 0.00 in WeatherDisplay:10.37 W/m2 FEW
10:30 60.5 °F 46.6 °F 30.28 in East 15.0 mph 25.0 mph 60% 0.00 in WeatherDisplay:10.37 W/m2 FEW
10:35 61.0 °F 46.6 °F 30.28 in East 15.0 mph 25.0 mph 59% 0.00 in WeatherDisplay:10.37 W/m2 FEW
10:40 61.4 °F 46.9 °F 30.28 in East 15.0 mph 25.0 mph 59% 0.00 in WeatherDisplay:10.37 W/m2 FEW
10:45 61.6 °F 46.7 °F 30.28 in East 15.0 mph 25.0 mph 58% 0.00 in WeatherDisplay:10.37 W/m2 FEW
10:50 61.9 °F 46.0 °F 30.28 in East 15.0 mph 25.0 mph 56% 0.00 in WeatherDisplay:10.37 W/m2 FEW
10:55 62.2 °F 46.3 °F 30.28 in East 15.0 mph 25.0 mph 56% 0.00 in WeatherDisplay:10.37 W/m2 FEW
11:00 62.5 °F 45.6 °F 30.28 in East 15.0 mph 25.0 mph 54% 0.00 in WeatherDisplay:10.37 W/m2 FEW
11:05 62.9 °F 46.0 °F 30.28 in East 15.0 mph 25.0 mph 54% 0.00 in WeatherDisplay:10.37 W/m2 FEW
11:10 63.3 °F 45.9 °F 30.28 in East 15.0 mph 25.0 mph 53% 0.00 in WeatherDisplay:10.37 W/m2 FEW
11:15 63.3 °F 45.4 °F 30.28 in East 13.0 mph 25.0 mph 52% 0.00 in WeatherDisplay:10.37 W/m2 FEW
11:20 63.6 °F 46.2 °F 30.28 in ENE 13.0 mph 24.0 mph 53% 0.00 in WeatherDisplay:10.37 W/m2 FEW
11:25 64.3 °F 46.8 °F 30.28 in ENE 13.0 mph 24.0 mph 53% 0.00 in WeatherDisplay:10.37 W/m2 FEW
11:30 64.3 °F 46.8 °F 30.28 in ENE 13.0 mph 24.0 mph 53% 0.00 in WeatherDisplay:10.37 W/m2 FEW
11:35 65.3 °F 47.7 °F 30.28 in ENE 13.0 mph 24.0 mph 53% 0.00 in WeatherDisplay:10.37 W/m2 FEW
11:40 66.1 °F 47.4 °F 30.28 in ENE 13.0 mph 24.0 mph 51% 0.00 in WeatherDisplay:10.37 W/m2 FEW
11:45 66.7 °F 47.4 °F 30.28 in ENE 13.0 mph 24.0 mph 50% 0.00 in WeatherDisplay:10.37 W/m2 FEW
11:50 66.6 °F 47.4 °F 30.28 in ENE 13.0 mph 24.0 mph 50% 0.00 in WeatherDisplay:10.37 W/m2 FEW
11:55 66.9 °F 47.6 °F 30.28 in ENE 13.0 mph 24.0 mph 50% 0.00 in WeatherDisplay:10.37 W/m2 FEW
12:00 67.1 °F 47.3 °F 30.28 in ENE 13.0 mph 24.0 mph 49% 0.00 in WeatherDisplay:10.37 W/m2 FEW
12:05 66.9 °F 46.6 °F 30.28 in ENE 13.0 mph 24.0 mph 48% 0.00 in WeatherDisplay:10.37 W/m2 FEW
12:10 67.2 °F 46.9 °F 30.28 in ENE 13.0 mph 24.0 mph 48% 0.00 in WeatherDisplay:10.37 W/m2 FEW
12:15 66.9 °F 47.1 °F 30.28 in ENE 13.0 mph 28.0 mph 49% 0.00 in WeatherDisplay:10.37 W/m2 FEW
12:25 67.3 °F 48.5 °F 30.27 in East 13.0 mph 28.0 mph 51% 0.00 in WeatherDisplay:10.37 W/m2 FEW
12:30 67.1 °F 47.3 °F 30.27 in East 13.0 mph 28.0 mph 49% 0.00 in WeatherDisplay:10.37 W/m2 FEW
12:35 67.8 °F 47.9 °F 30.27 in East 13.0 mph 28.0 mph 49% 0.00 in WeatherDisplay:10.37 W/m2 FEW
12:40 68.1 °F 47.1 °F 30.27 in East 13.0 mph 28.0 mph 47% 0.00 in WeatherDisplay:10.37 W/m2 FEW
12:45 68.6 °F 48.1 °F 30.27 in East 13.0 mph 28.0 mph 48% 0.00 in WeatherDisplay:10.37 W/m2 FEW
12:50 68.9 °F 47.3 °F 30.26 in East 13.0 mph 28.0 mph 46% 0.00 in WeatherDisplay:10.37 W/m2 FEW
12:55 68.9 °F 47.2 °F 30.26 in East 13.0 mph 28.0 mph 46% 0.00 in WeatherDisplay:10.37 W/m2 FEW
13:00 68.6 °F 46.4 °F 30.26 in East 13.0 mph 28.0 mph 45% 0.00 in WeatherDisplay:10.37 W/m2 FEW
13:05 68.6 °F 46.4 °F 30.26 in East 13.0 mph 28.0 mph 45% 0.00 in WeatherDisplay:10.37 W/m2 FEW
13:10 68.2 °F 45.5 °F 30.26 in East 13.0 mph 28.0 mph 44% 0.00 in WeatherDisplay:10.37 W/m2 FEW
13:15 67.8 °F 45.7 °F 30.26 in East 13.0 mph 28.0 mph 45% 0.00 in WeatherDisplay:10.37 W/m2 SCT
13:20 67.1 °F 45.0 °F 30.26 in East 13.0 mph 25.0 mph 45% 0.00 in WeatherDisplay:10.37 W/m2 SCT
13:25 67.4 °F 46.5 °F 30.25 in East 13.0 mph 25.0 mph 47% 0.00 in WeatherDisplay:10.37 W/m2 SCT
13:30 67.9 °F 45.2 °F 30.25 in East 13.0 mph 25.0 mph 44% 0.00 in WeatherDisplay:10.37 W/m2 SCT
13:40 67.0 °F 46.1 °F 30.25 in East 13.0 mph 25.0 mph 47% 0.00 in WeatherDisplay:10.37 W/m2 SCT
13:45 67.1 °F 45.6 °F 30.24 in East 13.0 mph 25.0 mph 46% 0.00 in WeatherDisplay:10.37 W/m2 SCT
13:50 67.7 °F 47.3 °F 30.24 in East 13.0 mph 25.0 mph 48% 0.00 in WeatherDisplay:10.37 W/m2 SCT
13:55 68.7 °F 47.6 °F 30.24 in East 13.0 mph 25.0 mph 47% 0.00 in WeatherDisplay:10.37 W/m2 SCT
14:00 69.6 °F 45.5 °F 30.24 in East 13.0 mph 25.0 mph 42% 0.00 in WeatherDisplay:10.37 W/m2 SCT
14:05 69.6 °F 44.9 °F 30.23 in East 13.0 mph 25.0 mph 41% 0.00 in WeatherDisplay:10.37 W/m2 SCT
14:10 69.7 °F 45.6 °F 30.23 in East 13.0 mph 25.0 mph 42% 0.00 in WeatherDisplay:10.37 W/m2 SCT
14:15 70.3 °F 46.1 °F 30.23 in East 12.0 mph 25.0 mph 42% 0.00 in WeatherDisplay:10.37 W/m2 BKN
14:20 70.5 °F 47.0 °F 30.22 in East 12.0 mph 12.0 mph 43% 0.00 in WeatherDisplay:10.37 W/m2 BKN
14:25 70.5 °F 45.0 °F 30.23 in East 12.0 mph 12.0 mph 40% 0.00 in WeatherDisplay:10.37 W/m2 BKN
14:30 69.9 °F 44.5 °F 30.22 in East 12.0 mph 12.0 mph 40% 0.00 in WeatherDisplay:10.37 W/m2 BKN
14:35 69.9 °F 46.4 °F 30.21 in East 12.0 mph 12.0 mph 43% 0.00 in WeatherDisplay:10.37 W/m2 BKN
14:40 70.3 °F 46.1 °F 30.21 in East 12.0 mph 12.0 mph 42% 0.00 in WeatherDisplay:10.37 W/m2 BKN
14:45 70.4 °F 45.0 °F 30.21 in East 12.0 mph 12.0 mph 40% 0.00 in WeatherDisplay:10.37 W/m2 BKN
14:50 70.3 °F 45.4 °F 30.21 in East 12.0 mph 12.0 mph 41% 0.00 in WeatherDisplay:10.37 W/m2 BKN
14:55 69.9 °F 45.1 °F 30.21 in East 12.0 mph 12.0 mph 41% 0.00 in WeatherDisplay:10.37 W/m2 BKN
15:00 70.2 °F 45.4 °F 30.21 in East 12.0 mph 12.0 mph 41% 0.00 in WeatherDisplay:10.37 W/m2 BKN
15:05 70.4 °F 45.6 °F 30.20 in East 12.0 mph 12.0 mph 41% 0.00 in WeatherDisplay:10.37 W/m2 BKN
15:10 70.4 °F 46.2 °F 30.20 in East 12.0 mph 12.0 mph 42% 0.00 in WeatherDisplay:10.37 W/m2 BKN
15:15 70.5 °F 45.7 °F 30.20 in East 7.0 mph 12.0 mph 41% 0.00 in WeatherDisplay:10.37 W/m2 BKN
15:20 70.1 °F 44.6 °F 30.20 in East 7.0 mph 7.0 mph 40% 0.00 in WeatherDisplay:10.37 W/m2 BKN
15:25 69.7 °F 44.3 °F 30.20 in East 7.0 mph 7.0 mph 40% 0.00 in WeatherDisplay:10.37 W/m2 BKN
15:30 69.7 °F 44.3 °F 30.20 in East 7.0 mph 7.0 mph 40% 0.00 in WeatherDisplay:10.37 W/m2 BKN
15:35 69.6 °F 44.2 °F 30.20 in East 7.0 mph 7.0 mph 40% 0.00 in WeatherDisplay:10.37 W/m2 BKN
15:40 69.6 °F 45.5 °F 30.20 in East 7.0 mph 7.0 mph 42% 0.00 in WeatherDisplay:10.37 W/m2 BKN
15:45 69.5 °F 44.1 °F 30.20 in East 7.0 mph 7.0 mph 40% 0.00 in WeatherDisplay:10.37 W/m2 BKN
15:50 69.5 °F 45.4 °F 30.20 in East 7.0 mph 7.0 mph 42% 0.00 in WeatherDisplay:10.37 W/m2 BKN
16:00 69.6 °F 45.5 °F 30.19 in East 7.0 mph 7.0 mph 42% 0.00 in WeatherDisplay:10.37 W/m2 BKN
16:05 69.8 °F 45.7 °F 30.19 in East 7.0 mph 7.0 mph 42% 0.00 in WeatherDisplay:10.37 W/m2 BKN
16:10 70.1 °F 45.3 °F 30.19 in East 7.0 mph 7.0 mph 41% 0.00 in WeatherDisplay:10.37 W/m2 BKN
16:15 70.6 °F 46.4 °F 30.19 in East 12.0 mph 21.0 mph 42% 0.00 in WeatherDisplay:10.37 W/m2 BKN
16:20 70.7 °F 45.2 °F 30.19 in East 12.0 mph 21.0 mph 40% 0.00 in WeatherDisplay:10.37 W/m2 BKN
16:25 70.3 °F 45.5 °F 30.19 in East 12.0 mph 21.0 mph 41% 0.00 in WeatherDisplay:10.37 W/m2 BKN
16:30 70.4 °F 46.2 °F 30.18 in East 12.0 mph 21.0 mph 42% 0.00 in WeatherDisplay:10.37 W/m2 BKN
16:35 70.5 °F 45.7 °F 30.18 in East 12.0 mph 21.0 mph 41% 0.00 in WeatherDisplay:10.37 W/m2 BKN
16:40 70.7 °F 45.8 °F 30.19 in East 12.0 mph 21.0 mph 41% 0.00 in WeatherDisplay:10.37 W/m2 BKN
16:45 70.5 °F 45.7 °F 30.18 in East 12.0 mph 21.0 mph 41% 0.00 in WeatherDisplay:10.37 W/m2 BKN
16:50 70.3 °F 45.4 °F 30.18 in East 12.0 mph 21.0 mph 41% 0.00 in WeatherDisplay:10.37 W/m2 BKN
16:55 70.1 °F 45.9 °F 30.18 in East 12.0 mph 21.0 mph 42% 0.00 in WeatherDisplay:10.37 W/m2 BKN
17:00 70.0 °F 46.5 °F 30.18 in East 12.0 mph 21.0 mph 43% 0.00 in WeatherDisplay:10.37 W/m2 BKN
17:05 69.9 °F 44.5 °F 30.19 in East 12.0 mph 21.0 mph 40% 0.00 in WeatherDisplay:10.37 W/m2 BKN
17:10 69.7 °F 44.9 °F 30.18 in East 12.0 mph 21.0 mph 41% 0.00 in WeatherDisplay:10.37 W/m2 BKN
17:15 69.4 °F 44.7 °F 30.19 in East 14.0 mph 21.0 mph 41% 0.00 in WeatherDisplay:10.37 W/m2 BKN
17:20 69.1 °F 45.7 °F 30.19 in East 14.0 mph 14.0 mph 43% 0.00 in WeatherDisplay:10.37 W/m2 BKN
17:25 69.0 °F 45.6 °F 30.18 in East 14.0 mph 14.0 mph 43% 0.00 in WeatherDisplay:10.37 W/m2 BKN
17:30 69.0 °F 45.6 °F 30.18 in East 14.0 mph 14.0 mph 43% 0.00 in WeatherDisplay:10.37 W/m2 BKN
17:35 69.0 °F 44.9 °F 30.18 in East 14.0 mph 14.0 mph 42% 0.00 in WeatherDisplay:10.37 W/m2 BKN
17:40 68.8 °F 45.4 °F 30.18 in East 14.0 mph 14.0 mph 43% 0.00 in WeatherDisplay:10.37 W/m2 BKN
17:45 68.6 °F 45.8 °F 30.18 in East 14.0 mph 14.0 mph 44% 0.00 in WeatherDisplay:10.37 W/m2 BKN
17:50 68.6 °F 47.0 °F 30.18 in East 14.0 mph 14.0 mph 46% 0.00 in WeatherDisplay:10.37 W/m2 BKN
17:55 68.5 °F 45.1 °F 30.18 in East 14.0 mph 14.0 mph 43% 0.00 in WeatherDisplay:10.37 W/m2 BKN
18:00 68.3 °F 44.9 °F 30.18 in East 14.0 mph 14.0 mph 43% 0.00 in WeatherDisplay:10.37 W/m2 BKN
18:05 68.1 °F 44.7 °F 30.18 in East 14.0 mph 14.0 mph 43% 0.00 in WeatherDisplay:10.37 W/m2 BKN
18:10 67.9 °F 45.2 °F 30.18 in East 14.0 mph 14.0 mph 44% 0.00 in WeatherDisplay:10.37 W/m2 BKN
18:15 67.7 °F 45.6 °F 30.18 in East 12.0 mph 14.0 mph 45% 0.00 in WeatherDisplay:10.37 W/m2 BKN
18:20 67.5 °F 45.4 °F 30.18 in East 12.0 mph 12.0 mph 45% 0.00 in WeatherDisplay:10.37 W/m2 BKN
18:25 67.3 °F 45.2 °F 30.18 in East 12.0 mph 12.0 mph 45% 0.00 in WeatherDisplay:10.37 W/m2 BKN
18:30 67.1 °F 45.0 °F 30.19 in East 12.0 mph 12.0 mph 45% 0.00 in WeatherDisplay:10.37 W/m2 BKN
18:40 66.5 °F 45.7 °F 30.19 in East 12.0 mph 12.0 mph 47% 0.00 in WeatherDisplay:10.37 W/m2 BKN
18:45 66.3 °F 46.0 °F 30.19 in East 12.0 mph 12.0 mph 48% 0.00 in WeatherDisplay:10.37 W/m2 BKN
18:50 66.0 °F 46.3 °F 30.19 in East 12.0 mph 12.0 mph 49% 0.00 in WeatherDisplay:10.37 W/m2 BKN
18:55 65.8 °F 46.1 °F 30.19 in East 12.0 mph 12.0 mph 49% 0.00 in WeatherDisplay:10.37 W/m2 BKN
19:00 65.6 °F 46.0 °F 30.19 in East 12.0 mph 12.0 mph 49% 0.00 in WeatherDisplay:10.37 W/m2 BKN
19:05 65.5 °F 46.4 °F 30.19 in East 12.0 mph 12.0 mph 50% 0.00 in WeatherDisplay:10.37 W/m2 BKN
19:10 65.4 °F 45.7 °F 30.20 in East 12.0 mph 12.0 mph 49% 0.00 in WeatherDisplay:10.37 W/m2 BKN
19:15 65.3 °F 46.7 °F 30.20 in East 6.0 mph 12.0 mph 51% 0.00 in WeatherDisplay:10.37 W/m2 BKN
19:20 65.1 °F 47.0 °F 30.20 in East 6.0 mph 6.0 mph 52% 0.00 in WeatherDisplay:10.37 W/m2 BKN
19:25 64.8 °F 47.2 °F 30.20 in East 6.0 mph 6.0 mph 53% 0.00 in WeatherDisplay:10.37 W/m2 BKN
19:30 64.4 °F 46.4 °F 30.20 in East 6.0 mph 6.0 mph 52% 0.00 in WeatherDisplay:10.37 W/m2 BKN
19:40 63.9 °F 47.4 °F 30.20 in East 6.0 mph 6.0 mph 55% 0.00 in WeatherDisplay:10.37 W/m2 BKN
19:45 63.6 °F 47.6 °F 30.20 in East 6.0 mph 6.0 mph 56% 0.00 in WeatherDisplay:10.37 W/m2 BKN
19:50 63.3 °F 47.3 °F 30.21 in East 6.0 mph 6.0 mph 56% 0.00 in WeatherDisplay:10.37 W/m2 BKN
19:55 63.1 °F 47.6 °F 30.21 in East 6.0 mph 6.0 mph 57% 0.00 in WeatherDisplay:10.37 W/m2 BKN
20:00 62.9 °F 47.0 °F 30.21 in East 6.0 mph 6.0 mph 56% 0.00 in WeatherDisplay:10.37 W/m2 BKN
20:05 62.8 °F 47.3 °F 30.21 in East 6.0 mph 6.0 mph 57% 0.00 in WeatherDisplay:10.37 W/m2 BKN
20:10 62.6 °F 47.6 °F 30.21 in East 6.0 mph 6.0 mph 58% 0.00 in WeatherDisplay:10.37 W/m2 BKN
20:15 62.4 °F 47.4 °F 30.21 in East 7.0 mph 7.0 mph 58% 0.00 in WeatherDisplay:10.37 W/m2 BKN
20:20 62.3 °F 47.3 °F 30.21 in East 7.0 mph 7.0 mph 58% 0.00 in WeatherDisplay:10.37 W/m2 BKN
20:25 62.2 °F 47.2 °F 30.22 in East 7.0 mph 7.0 mph 58% 0.00 in WeatherDisplay:10.37 W/m2 BKN
20:30 62.1 °F 48.0 °F 30.22 in East 7.0 mph 7.0 mph 60% 0.00 in WeatherDisplay:10.37 W/m2 BKN
20:35 61.8 °F 47.3 °F 30.22 in East 7.0 mph 7.0 mph 59% 0.00 in WeatherDisplay:10.37 W/m2 BKN
20:40 61.6 °F 47.6 °F 30.22 in East 7.0 mph 7.0 mph 60% 0.00 in WeatherDisplay:10.37 W/m2 BKN
20:45 61.4 °F 47.9 °F 30.22 in East 7.0 mph 7.0 mph 61% 0.00 in WeatherDisplay:10.37 W/m2 BKN
20:50 61.3 °F 47.7 °F 30.22 in East 7.0 mph 7.0 mph 61% 0.00 in WeatherDisplay:10.37 W/m2 BKN
20:55 61.1 °F 47.5 °F 30.22 in East 7.0 mph 7.0 mph 61% 0.00 in WeatherDisplay:10.37 W/m2 BKN
21:00 61.0 °F 47.9 °F 30.23 in East 7.0 mph 7.0 mph 62% 0.00 in WeatherDisplay:10.37 W/m2 BKN
21:05 60.9 °F 47.8 °F 30.23 in East 7.0 mph 7.0 mph 62% 0.00 in WeatherDisplay:10.37 W/m2 BKN
21:10 60.8 °F 48.1 °F 30.23 in East 7.0 mph 7.0 mph 63% 0.00 in WeatherDisplay:10.37 W/m2 BKN
21:15 60.6 °F 47.9 °F 30.23 in ENE 3.0 mph 7.0 mph 63% 0.00 in WeatherDisplay:10.37 W/m2 SCT
21:20 60.5 °F 47.8 °F 30.24 in ENE 3.0 mph 3.0 mph 63% 0.00 in WeatherDisplay:10.37 W/m2 SCT
21:25 60.4 °F 47.7 °F 30.24 in ENE 3.0 mph 3.0 mph 63% 0.00 in WeatherDisplay:10.37 W/m2 SCT
21:30 60.4 °F 47.3 °F 30.24 in ENE 3.0 mph 3.0 mph 62% 0.00 in WeatherDisplay:10.37 W/m2 SCT
21:35 60.3 °F 47.6 °F 30.24 in ENE 3.0 mph 3.0 mph 63% 0.00 in WeatherDisplay:10.37 W/m2 SCT
21:40 60.3 °F 47.6 °F 30.24 in ENE 3.0 mph 3.0 mph 63% 0.00 in WeatherDisplay:10.37 W/m2 SCT
21:45 60.3 °F 47.6 °F 30.24 in ENE 3.0 mph 3.0 mph 63% 0.00 in WeatherDisplay:10.37 W/m2 SCT
21:50 60.2 °F 47.6 °F 30.24 in ENE 3.0 mph 3.0 mph 63% 0.00 in WeatherDisplay:10.37 W/m2 SCT
21:55 60.1 °F 47.5 °F 30.25 in ENE 3.0 mph 3.0 mph 63% 0.00 in WeatherDisplay:10.37 W/m2 SCT
22:00 60.1 °F 47.4 °F 30.25 in ENE 3.0 mph 3.0 mph 63% 0.00 in WeatherDisplay:10.37 W/m2 SCT
22:05 60.0 °F 47.4 °F 30.25 in ENE 3.0 mph 3.0 mph 63% 0.00 in WeatherDisplay:10.37 W/m2 SCT
22:10 60.0 °F 47.4 °F 30.25 in ENE 3.0 mph 3.0 mph 63% 0.00 in WeatherDisplay:10.37 W/m2 SCT
22:15 60.0 °F 47.3 °F 30.25 in East 5.0 mph 5.0 mph 63% 0.00 in WeatherDisplay:10.37 W/m2 BKN
22:20 59.9 °F 47.3 °F 30.25 in East 5.0 mph 5.0 mph 63% 0.00 in WeatherDisplay:10.37 W/m2 BKN
22:25 59.9 °F 47.3 °F 30.25 in East 5.0 mph 5.0 mph 63% 0.00 in WeatherDisplay:10.37 W/m2 BKN
22:30 60.0 °F 47.4 °F 30.25 in East 5.0 mph 5.0 mph 63% 0.00 in WeatherDisplay:10.37 W/m2 BKN
22:35 60.0 °F 47.4 °F 30.25 in East 5.0 mph 5.0 mph 63% 0.00 in WeatherDisplay:10.37 W/m2 BKN
22:40 59.9 °F 47.3 °F 30.25 in East 5.0 mph 5.0 mph 63% 0.00 in WeatherDisplay:10.37 W/m2 BKN
22:45 59.9 °F 47.3 °F 30.25 in East 5.0 mph 5.0 mph 63% 0.00 in WeatherDisplay:10.37 W/m2 BKN
22:50 59.9 °F 47.3 °F 30.25 in East 5.0 mph 5.0 mph 63% 0.00 in WeatherDisplay:10.37 W/m2 BKN
22:55 59.9 °F 47.2 °F 30.25 in East 5.0 mph 5.0 mph 63% 0.00 in WeatherDisplay:10.37 W/m2 BKN
23:00 59.9 °F 47.3 °F 30.25 in East 5.0 mph 5.0 mph 63% 0.00 in WeatherDisplay:10.37 W/m2 BKN
23:05 59.9 °F 47.2 °F 30.26 in East 5.0 mph 5.0 mph 63% 0.00 in WeatherDisplay:10.37 W/m2 BKN
23:10 59.8 °F 47.2 °F 30.26 in East 5.0 mph 5.0 mph 63% 0.00 in WeatherDisplay:10.37 W/m2 BKN
23:15 59.8 °F 46.7 °F 30.26 in East 6.0 mph 6.0 mph 62% 0.00 in WeatherDisplay:10.37 W/m2 BKN
23:20 59.9 °F 47.3 °F 30.26 in East 6.0 mph 6.0 mph 63% 0.00 in WeatherDisplay:10.37 W/m2 BKN
23:25 59.9 °F 47.2 °F 30.26 in East 6.0 mph 6.0 mph 63% 0.00 in WeatherDisplay:10.37 W/m2 BKN
23:30 59.8 °F 47.2 °F 30.27 in East 6.0 mph 6.0 mph 63% 0.00 in WeatherDisplay:10.37 W/m2 BKN
23:35 59.9 °F 46.8 °F 30.27 in East 6.0 mph 6.0 mph 62% 0.00 in WeatherDisplay:10.37 W/m2 BKN
23:40 59.9 °F 46.8 °F 30.27 in East 6.0 mph 6.0 mph 62% 0.00 in WeatherDisplay:10.37 W/m2 BKN
23:45 59.8 °F 46.7 °F 30.27 in East 6.0 mph 6.0 mph 62% 0.00 in WeatherDisplay:10.37 W/m2 BKN
23:50 59.8 °F 46.7 °F 30.27 in East 6.0 mph 6.0 mph 62% 0.00 in WeatherDisplay:10.37 W/m2 BKN
23:55 59.8 °F 46.7 °F 30.27 in East 6.0 mph 6.0 mph 62% 0.00 in WeatherDisplay:10.37 W/m2 BKN
Piedmont Bend
Compliments of Weather Underground - 4 mb